METAR Analyzer

一覧表示

Hello, Guest. (Login)

EDDF/FRA  -  フランクフルト

観測日時
2022-09-30 06:50 (UTC) (38分前)
気温
7
露点
5
湿数
2
相対湿度
87.1%
QNH
1011hPa
推定現地気圧
997.8hPa
推定海面気圧
1011.4hPa
体感温度
0.5
(無風時)
10.1
HI
6
気温前日比
±0
体感温度前日比
+0.2
HI前日比
-0.2
水平視程
>10000m
鉛直視程
データなし
雲底高度
No dense clouds
V/I
VMC (VFR)
RVR
No RVR data
卓越風
3kt from 30° (350° ~ 80°)
ガスト
No gust
降水
報告なし
その他の天気
報告なし
報告なし

EDDF 300650Z AUTO 03003KT 350V080 CAVOK 07/05 Q1011 NOSIG

EDDM/MUC  -  ミュンヘン

観測日時
2022-09-30 06:50 (UTC) (38分前)
気温
8
露点
8
湿数
0
相対湿度
100%
QNH
1010hPa
推定現地気圧
956.9hPa
推定海面気圧
1010.8hPa
体感温度
10.8
(無風時)
10.8
HI
7.5
気温前日比
+1
体感温度前日比
+10.5
HI前日比
+1.3
水平視程
4100m
鉛直視程
データなし
雲底高度
No dense clouds
V/I
SVMC (SVFR)
RVR
No RVR data
卓越風
静穏
ガスト
No gust
降水
報告なし
その他の天気
もや
散在する雲 @ 4000ft AGL

EDDM 300650Z AUTO 00000KT 4100 BR SCT040 08/08 Q1010

EDDL/DUS  -  デュッセルドルフ

観測日時
2022-09-30 06:50 (UTC) (38分前)
気温
8
露点
6
湿数
2
相対湿度
87.2%
QNH
1011hPa
推定現地気圧
1005.6hPa
推定海面気圧
1011.1hPa
体感温度
-1.6
(無風時)
11
HI
7.1
気温前日比
±0
体感温度前日比
±0
HI前日比
±0
水平視程
>10000m
鉛直視程
データなし
雲底高度
No dense clouds
V/I
VMC (VFR)
RVR
No RVR data
卓越風
6kt from 170°
ガスト
No gust
降水
報告なし
その他の天気
報告なし
報告なし

EDDL 300650Z AUTO 17006KT CAVOK 08/06 Q1011 NOSIG

LFPG/CDG  -  パリ=シャルル・ド・ゴール

観測日時
2022-09-30 07:00 (UTC) (28分前)
気温
8
露点
7
湿数
1
相対湿度
93.4%
QNH
1012hPa
推定現地気圧
997.8hPa
推定海面気圧
1012.3hPa
体感温度
1.5
(無風時)
10.9
HI
7.3
気温前日比
-2
体感温度前日比
-4
HI前日比
-2.2
水平視程
>10000m
鉛直視程
データなし
雲底高度
No dense clouds
V/I
VMC (VFR)
RVR
No RVR data
卓越風
3kt from 280°
ガスト
No gust
降水
報告なし
その他の天気
報告なし
報告なし

LFPG 300700Z 28003KT CAVOK 08/07 Q1012 NOSIG

EGLL/LHR  -  ロンドン・ヒースロー

観測日時
2022-09-30 06:50 (UTC) (38分前)
気温
8
露点
8
湿数
0
相対湿度
100%
QNH
1009hPa
推定現地気圧
1006.0hPa
推定海面気圧
1009.1hPa
体感温度
-0.2
(無風時)
10.8
HI
7.5
気温前日比
+1
体感温度前日比
-0.5
HI前日比
+1.3
水平視程
400m
鉛直視程
Unknown
雲底高度
データなし
V/I
判定不可
RVR (R27R)
350m ()
RVR (R27L)
400m ()
卓越風
4kt from 190° (160° ~ 230°)
ガスト
No gust
降水
報告なし
その他の天気
報告なし

EGLL 300650Z AUTO 19004KT 160V230 0400 R27R/0350N R27L/0400N FG VV/// 08/08 Q1009 NOSIG

77.6msec